Time;durP1;ratioP1;P1;durP2;ratioP2;P2;SDS_P1;SDS_P2;PMS_P1;PMS_P2;Temp;Humidity;BMP_temperature;BMP_pressure;BME280_temperature;BME280_humidity;BME280_pressure;Samples;Min_cycle;Max_cycle;Signal;HPM_P1;HPM_P2
2022/05/17 00:00:14;;;;;;;4.97;3.10;;;;;;;16.30;100.00;96783.88;5059432;28;20061;-49
2022/05/17 00:02:42;;;;;;;5.07;3.33;;;;;;;16.31;100.00;96782.88;5058043;28;20076;-50
2022/05/17 00:05:10;;;;;;;6.72;3.95;;;;;;;16.57;100.00;96779.91;5059973;28;20446;-47
2022/05/17 00:07:39;;;;;;;8.18;3.75;;;;;;;16.54;100.00;96771.44;5062207;28;20052;-50
2022/05/17 00:10:08;;;;;;;6.78;3.72;;;;;;;16.50;100.00;96778.13;5066566;28;20064;-45
2022/05/17 00:12:37;;;;;;;5.13;4.00;;;;;;;16.50;100.00;96780.78;5064605;28;20455;-52
2022/05/17 00:15:07;;;;;;;6.25;3.95;;;;;;;16.58;100.00;96778.09;5069337;28;20079;-46
2022/05/17 00:17:36;;;;;;;5.43;3.28;;;;;;;16.36;100.00;96777.03;5066224;28;20071;-49
2022/05/17 00:20:05;;;;;;;4.95;3.70;;;;;;;16.49;100.00;96776.47;5069950;28;20064;-46
2022/05/17 00:22:34;;;;;;;6.72;3.67;;;;;;;16.44;100.00;96779.66;5068568;28;20067;-46
2022/05/17 00:25:03;;;;;;;7.70;4.13;;;;;;;16.41;100.00;96769.34;5061468;28;20083;-44
2022/05/17 00:27:31;;;;;;;8.80;4.00;;;;;;;16.38;100.00;96773.19;5067319;28;20072;-45
2022/05/17 00:30:00;;;;;;;7.90;4.18;;;;;;;16.38;100.00;96767.06;5059446;28;20519;-47
2022/05/17 00:32:29;;;;;;;8.43;3.92;;;;;;;16.36;100.00;96769.88;5064098;28;20083;-49
2022/05/17 00:34:57;;;;;;;5.20;4.27;;;;;;;16.31;100.00;96766.91;5063594;28;20179;-49
2022/05/17 00:37:26;;;;;;;5.50;3.92;;;;;;;16.34;100.00;96773.69;5066073;28;20897;-46
2022/05/17 00:39:54;;;;;;;7.82;4.50;;;;;;;16.45;100.00;96776.00;5070707;28;20087;-50
2022/05/17 00:42:22;;;;;;;6.82;4.10;;;;;;;16.36;100.00;96780.50;5064001;28;20072;-48
2022/05/17 00:44:51;;;;;;;6.45;4.05;;;;;;;16.42;100.00;96776.34;5069328;28;20094;-47
2022/05/17 00:47:22;;;;;;;6.18;4.28;;;;;;;16.40;100.00;96772.19;5064860;28;20440;-47
2022/05/17 00:49:55;;;;;;;9.10;4.78;;;;;;;16.48;100.00;96782.78;5068670;28;20072;-46
2022/05/17 00:52:27;;;;;;;9.57;4.38;;;;;;;16.31;100.00;96776.69;5064449;28;20106;-51
2022/05/17 00:54:58;;;;;;;7.68;4.50;;;;;;;16.40;100.00;96774.84;5067491;28;20076;-49
2022/05/17 00:57:31;;;;;;;6.82;4.40;;;;;;;16.30;100.00;96775.88;5068531;28;20083;-50
2022/05/17 01:00:07;;;;;;;11.27;4.47;;;;;;;16.28;100.00;96780.56;5061868;28;20565;-51
2022/05/17 01:02:36;;;;;;;7.72;4.43;;;;;;;16.29;100.00;96774.22;5066917;28;20063;-46
2022/05/17 01:05:06;;;;;;;7.38;4.50;;;;;;;16.28;100.00;96777.91;5068168;28;20063;-45
2022/05/17 01:07:39;;;;;;;9.82;4.80;;;;;;;16.32;100.00;96778.38;5066687;28;20075;-51
2022/05/17 01:10:09;;;;;;;6.68;4.50;;;;;;;16.35;100.00;96778.88;5063709;28;20068;-50
2022/05/17 01:12:38;;;;;;;8.05;4.78;;;;;;;16.40;100.00;96767.69;5068047;28;20062;-46
2022/05/17 01:15:07;;;;;;;7.63;4.45;;;;;;;16.28;100.00;96775.25;5061456;28;20061;-47
2022/05/17 01:17:38;;;;;;;5.60;4.32;;;;;;;16.31;100.00;96769.56;5067812;28;20072;-44
2022/05/17 01:20:11;;;;;;;7.43;4.65;;;;;;;16.23;100.00;96766.94;5067325;28;20060;-48
2022/05/17 01:22:41;;;;;;;9.82;4.93;;;;;;;16.25;100.00;96772.91;5065316;28;20068;-47
2022/05/17 01:25:09;;;;;;;7.73;4.43;;;;;;;16.24;100.00;96775.72;5063394;28;20071;-48
2022/05/17 01:27:42;;;;;;;7.32;4.85;;;;;;;16.25;100.00;96770.25;5068617;28;20506;-49
2022/05/17 01:30:16;;;;;;;8.70;4.05;;;;;;;16.30;100.00;96770.56;5062113;28;20526;-46
2022/05/17 01:32:47;;;;;;;8.07;4.80;;;;;;;16.29;100.00;96771.56;5062060;28;20040;-49
2022/05/17 01:35:16;;;;;;;8.32;4.82;;;;;;;16.26;100.00;96763.91;5064984;28;20080;-48
2022/05/17 01:37:48;;;;;;;8.60;4.70;;;;;;;16.31;100.00;96763.41;5066798;28;20083;-44
2022/05/17 01:40:16;;;;;;;7.38;4.72;;;;;;;16.28;100.00;96761.94;5063832;28;20071;-46
2022/05/17 01:42:45;;;;;;;11.70;4.78;;;;;;;16.23;100.00;96764.25;5060870;28;20060;-45
2022/05/17 01:45:13;;;;;;;9.98;5.45;;;;;;;16.10;100.00;96769.28;5068463;28;20105;-51
2022/05/17 01:47:42;;;;;;;9.90;4.47;;;;;;;16.03;100.00;96774.47;5063844;28;20068;-52
2022/05/17 01:50:10;;;;;;;11.55;4.88;;;;;;;16.02;100.00;96766.69;5068379;28;20079;-51
2022/05/17 01:52:38;;;;;;;8.57;4.35;;;;;;;15.95;100.00;96766.53;5063608;28;20052;-50
2022/05/17 01:55:09;;;;;;;9.63;4.72;;;;;;;15.92;100.00;96771.34;5065119;28;20076;-50
2022/05/17 01:57:37;;;;;;;8.05;4.50;;;;;;;15.95;100.00;96765.69;5065821;28;20053;-44
2022/05/17 02:00:08;;;;;;;7.47;4.93;;;;;;;15.88;100.00;96763.72;5062461;28;20138;-46
2022/05/17 02:02:37;;;;;;;7.88;4.68;;;;;;;15.94;100.00;96767.53;5066763;28;20064;-52
2022/05/17 02:05:06;;;;;;;9.27;5.10;;;;;;;15.81;100.00;96762.75;5064483;28;20086;-47
2022/05/17 02:07:35;;;;;;;8.23;4.97;;;;;;;15.71;100.00;96770.06;5066262;28;20069;-49
2022/05/17 02:10:04;;;;;;;7.38;4.82;;;;;;;15.79;100.00;96767.38;5062747;28;20091;-50
2022/05/17 02:12:34;;;;;;;11.85;5.43;;;;;;;15.85;100.00;96769.38;5065263;28;20084;-46
2022/05/17 02:15:03;;;;;;;9.38;5.35;;;;;;;15.74;100.00;96766.25;5057520;28;20529;-47
2022/05/17 02:17:31;;;;;;;8.40;5.10;;;;;;;15.85;100.00;96768.53;5065635;28;20067;-46
2022/05/17 02:19:59;;;;;;;10.45;5.15;;;;;;;15.73;100.00;96770.75;5065621;28;20069;-43
2022/05/17 02:22:28;;;;;;;8.05;5.20;;;;;;;15.96;100.00;96780.66;5067190;28;20091;-53
2022/05/17 02:24:56;;;;;;;7.20;4.93;;;;;;;15.80;100.00;96770.91;5064129;28;20080;-52
2022/05/17 02:27:24;;;;;;;12.45;5.63;;;;;;;15.77;100.00;96769.41;5067001;28;20105;-51
2022/05/17 02:29:54;;;;;;;9.13;5.38;;;;;;;15.82;100.00;96769.72;5065307;28;20068;-48
2022/05/17 02:32:22;;;;;;;9.15;4.95;;;;;;;15.72;100.00;96773.56;5061963;28;20063;-46
2022/05/17 02:34:51;;;;;;;7.18;4.88;;;;;;;15.77;100.00;96782.69;5060130;28;20068;-49
2022/05/17 02:37:19;;;;;;;6.93;4.70;;;;;;;15.68;100.00;96780.22;5059744;28;20061;-48
2022/05/17 02:39:47;;;;;;;8.82;5.10;;;;;;;15.69;100.00;96788.03;5064951;28;20078;-46
2022/05/17 02:42:16;;;;;;;9.32;5.35;;;;;;;15.68;100.00;96788.19;5067409;28;20076;-45
2022/05/17 02:44:44;;;;;;;9.55;5.25;;;;;;;15.63;100.00;96783.34;5065644;28;20060;-50
2022/05/17 02:47:13;;;;;;;7.15;5.25;;;;;;;15.79;100.00;96785.16;5065461;28;20060;-46
2022/05/17 02:49:44;;;;;;;7.50;5.73;;;;;;;15.74;100.00;96788.34;5066071;28;20111;-51
2022/05/17 02:52:13;;;;;;;6.63;5.57;;;;;;;15.72;100.00;96792.16;5064114;28;20075;-52
2022/05/17 02:54:42;;;;;;;9.50;5.82;;;;;;;15.72;100.00;96792.16;5066061;28;20443;-49
2022/05/17 02:57:10;;;;;;;9.10;5.45;;;;;;;15.56;100.00;96793.00;5063732;28;21480;-50
2022/05/17 02:59:38;;;;;;;9.70;6.40;;;;;;;15.68;100.00;96789.00;5061854;28;20076;-50
2022/05/17 03:02:06;;;;;;;8.75;5.63;;;;;;;15.60;100.00;96789.84;5064112;28;20052;-44
2022/05/17 03:04:36;;;;;;;14.98;6.15;;;;;;;15.56;100.00;96787.69;5066393;28;20067;-45
2022/05/17 03:07:05;;;;;;;16.58;6.57;;;;;;;15.47;100.00;96797.47;5064867;28;21153;-47
2022/05/17 03:09:33;;;;;;;10.38;6.38;;;;;;;15.49;100.00;96800.00;5061364;28;20533;-45
2022/05/17 03:12:02;;;;;;;8.07;6.00;;;;;;;15.25;100.00;96801.63;5063894;28;20430;-46
2022/05/17 03:14:30;;;;;;;8.95;6.07;;;;;;;15.28;100.00;96803.13;5060869;28;20071;-45
2022/05/17 03:16:59;;;;;;;10.00;5.90;;;;;;;15.40;100.00;96797.31;5065061;28;20064;-46
2022/05/17 03:19:27;;;;;;;8.73;5.75;;;;;;;15.45;100.00;96796.84;5064921;28;20056;-49
2022/05/17 03:21:57;;;;;;;8.93;6.47;;;;;;;15.44;100.00;96801.28;5066113;28;20545;-48
2022/05/17 03:24:25;;;;;;;10.00;5.97;;;;;;;15.21;100.00;96800.31;5062621;28;20071;-45
2022/05/17 03:27:13;;;;;;;10.45;6.10;;;;;;;15.33;100.00;96804.28;5059154;28;20538;-45
2022/05/17 03:29:41;;;;;;;9.10;6.13;;;;;;;15.19;100.00;96813.75;5060781;28;21014;-50
2022/05/17 03:32:10;;;;;;;8.82;6.43;;;;;;;15.30;100.00;96815.25;5060290;28;20076;-49
2022/05/17 03:34:39;;;;;;;9.77;6.30;;;;;;;15.35;100.00;96814.78;5063682;28;20063;-46
2022/05/17 03:37:08;;;;;;;12.52;6.40;;;;;;;15.32;100.00;96809.78;5059239;28;20529;-46
2022/05/17 03:39:37;;;;;;;9.57;6.23;;;;;;;15.24;100.00;96815.91;5060220;28;20079;-51
2022/05/17 03:42:09;;;;;;;10.63;6.22;;;;;;;15.34;100.00;96813.09;5058667;28;21170;-48
2022/05/17 03:44:37;;;;;;;12.85;6.45;;;;;;;15.25;100.00;96820.25;5061439;28;20056;-44
2022/05/17 03:47:07;;;;;;;11.15;6.65;;;;;;;15.27;100.00;96820.88;5058834;28;20067;-45
2022/05/17 03:49:37;;;;;;;10.48;6.85;;;;;;;15.34;100.00;96813.91;5047460;28;20451;-47
2022/05/17 03:52:07;;;;;;;11.03;6.93;;;;;;;15.22;100.00;96819.75;5065127;28;20056;-47
2022/05/17 03:54:38;;;;;;;10.93;6.40;;;;;;;15.10;100.00;96808.59;5064379;28;20539;-49
2022/05/17 03:57:07;;;;;;;9.88;6.32;;;;;;;15.14;100.00;96818.75;5063986;28;20472;-53
2022/05/17 03:59:36;;;;;;;11.38;6.40;;;;;;;15.14;100.00;96823.19;5066169;28;20528;-46
2022/05/17 04:02:05;;;;;;;8.50;6.55;;;;;;;15.16;100.00;96829.19;5063838;28;20108;-46
2022/05/17 04:04:34;;;;;;;9.93;6.43;;;;;;;15.19;100.00;96828.88;5064487;28;20468;-48
2022/05/17 04:07:02;;;;;;;12.48;7.13;;;;;;;15.22;100.00;96822.41;5063564;28;20091;-44
2022/05/17 04:09:30;;;;;;;10.27;6.18;;;;;;;15.22;100.00;96828.53;5065269;28;20084;-48
2022/05/17 04:12:00;;;;;;;8.70;6.68;;;;;;;15.26;100.00;96835.19;5064082;28;20068;-46
2022/05/17 04:14:28;;;;;;;11.07;6.50;;;;;;;15.08;100.00;96830.00;5066555;28;20067;-52
2022/05/17 04:16:57;;;;;;;9.55;6.30;;;;;;;15.27;100.00;96831.50;5063381;28;20056;-44
2022/05/17 04:19:25;;;;;;;8.85;6.38;;;;;;;15.48;100.00;96833.69;5067534;28;20065;-45
2022/05/17 04:21:53;;;;;;;10.25;7.10;;;;;;;15.55;100.00;96823.22;5061095;28;20088;-49
2022/05/17 04:24:21;;;;;;;17.55;6.72;;;;;;;15.56;100.00;96830.22;5063076;28;20080;-46
2022/05/17 04:26:50;;;;;;;14.60;6.90;;;;;;;15.40;100.00;96833.69;5062824;28;20060;-44
2022/05/17 04:29:19;;;;;;;9.45;6.20;;;;;;;15.50;100.00;96836.19;5061894;28;20060;-47
2022/05/17 04:31:47;;;;;;;10.33;5.77;;;;;;;15.62;100.00;96838.38;5061645;28;20079;-47
2022/05/17 04:34:16;;;;;;;8.30;6.28;;;;;;;15.65;100.00;96838.00;5061789;28;20052;-46
2022/05/17 04:36:46;;;;;;;8.32;6.25;;;;;;;15.61;100.00;96838.50;5064646;28;20076;-48
2022/05/17 04:39:14;;;;;;;13.30;6.07;;;;;;;15.74;100.00;96841.53;5063488;28;20491;-50
2022/05/17 04:41:43;;;;;;;10.02;6.22;;;;;;;15.54;100.00;96851.63;5057829;28;20491;-47
2022/05/17 04:44:11;;;;;;;14.32;6.43;;;;;;;15.75;100.00;96843.19;5062510;28;20095;-47
2022/05/17 04:46:41;;;;;;;9.55;5.97;;;;;;;15.77;100.00;96849.19;5063044;28;20523;-48
2022/05/17 04:49:09;;;;;;;8.77;6.53;;;;;;;15.60;100.00;96847.50;5059878;28;20064;-44
2022/05/17 04:51:37;;;;;;;11.55;6.20;;;;;;;15.76;100.00;96851.97;5064793;28;20076;-43
2022/05/17 04:54:06;;;;;;;9.75;6.18;;;;;;;15.84;100.00;96847.50;5066731;28;20514;-45
2022/05/17 04:56:35;;;;;;;9.68;6.57;;;;;;;15.90;100.00;96844.19;5064609;28;20062;-44
2022/05/17 04:59:04;;;;;;;11.07;5.93;;;;;;;16.04;100.00;96855.97;5057527;28;20130;-46
2022/05/17 05:01:32;;;;;;;9.80;6.65;;;;;;;16.13;100.00;96849.59;5067395;28;20071;-44
2022/05/17 05:04:02;;;;;;;10.23;6.00;;;;;;;16.23;100.00;96856.59;5068411;28;20099;-52
2022/05/17 05:06:30;;;;;;;8.83;6.13;;;;;;;16.28;100.00;96860.41;5067504;28;20049;-51
2022/05/17 05:08:58;;;;;;;12.13;6.68;;;;;;;16.28;100.00;96870.22;5066491;28;20501;-47
2022/05/17 05:11:26;;;;;;;10.20;5.97;;;;;;;16.41;100.00;96869.66;5065684;28;20056;-48
2022/05/17 05:13:55;;;;;;;8.05;6.05;;;;;;;16.66;100.00;96871.25;5063952;28;20435;-45
2022/05/17 05:16:24;;;;;;;10.50;6.70;;;;;;;16.38;100.00;96868.19;5064469;28;20138;-48
2022/05/17 05:18:53;;;;;;;8.48;6.13;;;;;;;16.53;100.00;96868.31;5065525;28;20644;-49
2022/05/17 05:21:22;;;;;;;14.15;6.70;;;;;;;16.90;100.00;96873.00;5064570;28;20080;-47
2022/05/17 05:23:51;;;;;;;13.00;6.77;;;;;;;16.87;100.00;96876.03;5062955;28;20068;-48
2022/05/17 05:26:19;;;;;;;8.88;6.43;;;;;;;16.64;100.00;96877.75;5062496;28;20064;-48
2022/05/17 05:28:47;;;;;;;11.00;6.18;;;;;;;16.74;100.00;96873.91;5066691;28;20527;-47
2022/05/17 05:31:17;;;;;;;9.93;6.53;;;;;;;16.85;100.00;96870.84;5062970;28;20060;-47
2022/05/17 05:33:46;;;;;;;7.90;5.75;;;;;;;16.92;100.00;96876.31;5067027;28;20080;-50
2022/05/17 05:36:14;;;;;;;8.35;5.97;;;;;;;17.13;100.00;96870.38;5065676;28;20490;-48
2022/05/17 05:38:43;;;;;;;8.52;6.90;;;;;;;17.15;100.00;96870.22;5066697;28;20073;-48
2022/05/17 05:41:12;;;;;;;8.93;6.33;;;;;;;17.13;100.00;96870.38;5065950;28;20083;-46
2022/05/17 05:43:41;;;;;;;9.32;6.00;;;;;;;17.08;100.00;96875.41;5067975;28;20515;-47
2022/05/17 05:46:09;;;;;;;11.65;6.50;;;;;;;17.49;100.00;96870.66;5067546;28;20069;-47
2022/05/17 05:48:38;;;;;;;12.13;6.53;;;;;;;17.03;100.00;96875.09;5064480;28;20095;-46
2022/05/17 05:51:06;;;;;;;12.02;7.22;;;;;;;17.11;100.00;96884.91;5065653;28;20071;-46
2022/05/17 05:53:34;;;;;;;10.57;6.50;;;;;;;17.22;100.00;96873.84;5062807;28;20455;-45
2022/05/17 05:56:05;;;;;;;12.77;6.60;;;;;;;17.20;100.00;96884.66;5064582;28;20099;-45
2022/05/17 05:58:40;;;;;;;11.43;6.97;;;;;;;17.16;100.00;96894.00;5066067;28;20491;-46
2022/05/17 06:01:08;;;;;;;9.20;6.55;;;;;;;17.15;100.00;96899.53;5067785;28;20068;-48
2022/05/17 06:03:37;;;;;;;10.13;6.50;;;;;;;17.35;100.00;96891.94;5062771;28;20076;-49
2022/05/17 06:06:22;;;;;;;8.77;6.90;;;;;;;17.17;100.00;96894.84;5067151;28;20479;-48
2022/05/17 06:08:51;;;;;;;9.60;7.50;;;;;;;17.63;100.00;96895.72;5059588;28;20075;-50
2022/05/17 06:11:21;;;;;;;12.88;6.90;;;;;;;18.22;100.00;96885.22;5065069;28;20068;-49
2022/05/17 06:13:49;;;;;;;9.23;6.43;;;;;;;18.39;100.00;96890.41;5066141;28;20083;-49
2022/05/17 06:16:18;;;;;;;8.45;6.45;;;;;;;18.60;100.00;96887.81;5067940;28;21161;-49
2022/05/17 06:18:46;;;;;;;9.18;6.60;;;;;;;18.82;100.00;96885.25;5065954;28;20076;-47
2022/05/17 06:21:14;;;;;;;10.80;6.82;;;;;;;18.61;100.00;96889.47;5067441;28;20091;-52
2022/05/17 06:23:43;;;;;;;12.25;6.57;;;;;;;18.53;100.00;96886.91;5061403;28;20118;-49
2022/05/17 06:26:11;;;;;;;10.73;7.00;;;;;;;18.70;100.00;96899.06;5064289;28;20075;-50
2022/05/17 06:28:41;;;;;;;8.73;6.95;;;;;;;18.47;100.00;96893.81;5062711;28;20495;-46
2022/05/17 06:31:09;;;;;;;11.47;7.47;;;;;;;18.20;100.00;96897.94;5061047;28;20565;-51
2022/05/17 06:33:39;;;;;;;9.38;6.95;;;;;;;18.59;100.00;96896.88;5064935;28;20084;-48
2022/05/17 06:36:11;;;;;;;13.73;7.07;;;;;;;18.28;100.00;96891.69;5060941;28;20069;-50
2022/05/17 06:38:39;;;;;;;13.38;7.78;;;;;;;18.65;100.00;96892.59;5060838;28;20451;-47
2022/05/17 06:41:07;;;;;;;13.55;7.65;;;;;;;18.74;100.00;96889.69;5062621;28;20114;-51
2022/05/17 06:43:35;;;;;;;9.43;8.10;;;;;;;18.68;100.00;96887.72;5061067;28;20072;-51
2022/05/17 06:46:05;;;;;;;11.73;8.02;;;;;;;18.54;100.00;96891.22;5069033;28;20076;-51
2022/05/17 06:48:34;;;;;;;14.80;8.43;;;;;;;18.86;100.00;96894.59;5058843;28;20118;-49
2022/05/17 06:51:03;;;;;;;13.52;8.55;;;;;;;18.91;100.00;96893.00;5062736;28;20075;-49
2022/05/17 06:53:31;;;;;;;14.15;8.40;;;;;;;18.96;100.00;96890.59;5064346;28;20064;-54
2022/05/17 06:56:00;;;;;;;12.35;8.25;;;;;;;19.09;100.00;96891.78;5062723;28;20056;-51
2022/05/17 06:58:29;;;;;;;13.25;8.50;;;;;;;19.23;100.00;96890.09;5064040;28;20064;-49
2022/05/17 07:00:57;;;;;;;12.55;8.90;;;;;;;19.09;100.00;96894.44;5068540;28;20084;-48
2022/05/17 07:03:27;;;;;;;13.27;8.80;;;;;;;19.22;100.00;96883.91;5073177;28;20087;-44
2022/05/17 07:05:56;;;;;;;13.65;9.00;;;;;;;19.22;100.00;96894.59;5068223;28;20076;-51
2022/05/17 07:08:24;;;;;;;14.65;10.00;;;;;;;19.50;100.00;96899.22;5068527;28;20072;-47
2022/05/17 07:13:38;;;;;;;13.65;9.70;;;;;;;19.61;100.00;96894.22;5072405;28;20068;-48
2022/05/17 07:16:06;;;;;;;14.18;9.40;;;;;;;19.66;100.00;96889.13;5068805;28;20060;-49
2022/05/17 07:18:36;;;;;;;15.95;10.07;;;;;;;19.81;100.00;96890.91;5068683;28;20502;-50
2022/05/17 07:21:04;;;;;;;14.52;11.38;;;;;;;19.97;100.00;96890.66;5067933;28;20515;-44
2022/05/17 07:23:32;;;;;;;14.75;10.30;;;;;;;19.88;100.00;96887.28;5068406;28;20068;-48
2022/05/17 07:26:00;;;;;;;16.80;10.23;;;;;;;19.97;100.00;96892.50;5068072;28;20060;-49
2022/05/17 07:28:29;;;;;;;15.32;11.90;;;;;;;19.88;100.00;96892.63;5067892;28;20067;-52
2022/05/17 07:30:57;;;;;;;15.73;10.32;;;;;;;20.10;100.00;96896.13;5068160;28;20554;-44
2022/05/17 07:33:25;;;;;;;17.23;10.18;;;;;;;20.22;100.00;96888.38;5068746;28;20099;-51
2022/05/17 07:35:55;;;;;;;12.63;10.70;;;;;;;20.63;100.00;96893.00;5066033;28;20087;-52
2022/05/17 07:38:24;;;;;;;14.40;10.70;;;;;;;21.22;100.00;96888.94;5068788;28;20672;-52
2022/05/17 07:40:53;;;;;;;18.95;10.75;;;;;;;20.89;100.00;96886.97;5067469;28;20071;-48
2022/05/17 07:43:22;;;;;;;15.73;10.50;;;;;;;20.68;100.00;96887.03;5068366;28;20051;-49
2022/05/17 07:45:50;;;;;;;13.70;9.52;;;;;;;21.20;100.00;96889.16;5068139;28;20064;-44
2022/05/17 07:48:20;;;;;;;14.88;10.25;;;;;;;21.07;100.00;96879.19;5066419;28;20072;-51
2022/05/17 07:50:49;;;;;;;14.52;8.73;;;;;;;21.56;100.00;96880.81;5067026;28;20510;-48
2022/05/17 07:53:20;;;;;;;12.45;10.38;;;;;;;21.76;100.00;96877.34;5068666;28;20072;-49
2022/05/17 07:55:50;;;;;;;14.73;9.48;;;;;;;21.60;100.00;96870.50;5067572;28;20060;-46
2022/05/17 07:58:20;;;;;;;13.88;9.63;;;;;;;21.07;100.00;96886.44;5068123;28;20346;-52
2022/05/17 08:00:49;;;;;;;12.65;9.43;;;;;;;;;;5066071;28;20494;-49
2022/05/17 08:03:19;;;;;;;13.55;9.93;;;;;;;21.44;100.00;96884.28;5068571;28;20473;-52
2022/05/17 08:05:48;;;;;;;14.23;9.50;;;;;;;21.98;100.00;96880.66;5067894;28;20080;-48
2022/05/17 08:08:17;;;;;;;11.82;7.72;;;;;;;21.93;100.00;96880.47;5068305;28;20064;-44
2022/05/17 08:10:46;;;;;;;14.38;10.80;;;;;;;21.33;100.00;96878.47;5067747;28;20082;-44
2022/05/17 08:13:16;;;;;;;15.82;10.45;;;;;;;21.70;100.00;96875.47;5068095;28;20459;-44
2022/05/17 08:15:45;;;;;;;12.32;8.43;;;;;;;22.02;100.00;96876.50;5068272;28;20088;-46
2022/05/17 08:18:13;;;;;;;14.50;10.20;;;;;;;22.56;100.00;96874.66;5067829;28;21396;-45
2022/05/17 08:20:42;;;;;;;12.10;8.90;;;;;;;21.47;100.00;96867.78;5068150;28;20123;-47
2022/05/17 08:23:11;;;;;;;14.98;10.23;;;;;;;21.47;100.00;96883.88;5068168;28;20079;-50
2022/05/17 08:28:26;;;;;;;16.33;9.68;;;;;;;22.02;100.00;96874.69;5068024;28;20052;-48
2022/05/17 08:30:55;;;;;;;12.10;9.10;;;;;;;21.16;100.00;96882.53;5066420;28;20450;-47
2022/05/17 08:33:26;;;;;;;14.05;8.88;;;;;;;21.44;100.00;96879.78;5069536;28;20107;-50
2022/05/17 08:35:56;;;;;;;13.80;8.75;;;;;;;21.91;100.00;96874.44;5071950;28;20067;-47
2022/05/17 08:38:27;;;;;;;11.73;8.77;;;;;;;21.85;100.00;96875.28;5061393;28;20067;-46
2022/05/17 08:41:02;;;;;;;12.20;7.15;;;;;;;21.97;100.00;96877.16;5071202;28;20419;-46
2022/05/17 08:43:41;;;;;;;12.55;7.07;;;;;;;21.97;100.00;96871.78;5066143;28;20059;-50
2022/05/17 08:46:40;;;;;;;9.68;7.40;;;;;;;22.46;100.00;96875.06;5071637;28;20056;-44
2022/05/17 08:49:17;;;;;;;14.20;8.52;;;;;;;22.66;100.00;96869.66;5071339;28;20064;-47
2022/05/17 08:51:51;;;;;;;12.18;7.93;;;;;;;22.60;100.00;96874.00;5071454;28;20451;-46
2022/05/17 08:54:22;;;;;;;13.45;8.18;;;;;;;21.86;100.00;96868.88;5071811;28;20099;-46
2022/05/17 08:56:53;;;;;;;12.45;8.70;;;;;;;21.90;100.00;96876.31;5071350;28;20072;-49
2022/05/17 08:59:24;;;;;;;12.48;7.68;;;;;;;21.61;100.00;96874.00;5047453;28;20056;-49
2022/05/17 09:01:57;;;;;;;12.95;8.98;;;;;;;22.01;100.00;96882.94;5070532;28;20075;-44
2022/05/17 09:05:01;;;;;;;11.25;8.23;;;;;;;22.12;100.00;96879.63;5071649;28;20068;-49
2022/05/17 09:07:36;;;;;;;10.48;6.18;;;;;;;22.51;100.00;96872.59;5069375;28;20056;-47
2022/05/17 09:10:07;;;;;;;6.38;5.10;;;;;;;22.55;100.00;96883.75;5070490;28;20076;-47
2022/05/17 09:12:41;;;;;;;8.40;6.20;;;;;;;22.60;100.00;96873.19;5070628;28;20076;-48
2022/05/17 09:15:12;;;;;;;9.55;5.90;;;;;;;22.49;100.00;96871.97;5050841;28;20418;-50
2022/05/17 09:17:40;;;;;;;9.25;6.63;;;;;;;22.58;100.00;96872.59;5071055;28;20060;-47
2022/05/17 09:20:09;;;;;;;9.32;6.63;;;;;;;22.93;100.00;96871.25;5070970;28;20072;-48
2022/05/17 09:22:38;;;;;;;7.20;5.30;;;;;;;22.73;100.00;96873.97;5070383;28;20075;-48
2022/05/17 09:25:16;;;;;;;17.45;6.72;;;;;;;22.75;100.00;96874.59;5070151;28;20451;-48
2022/05/17 09:27:49;;;;;;;7.40;5.75;;;;;;;22.50;100.00;96879.84;5064002;28;20091;-51
2022/05/17 09:30:35;;;;;;;8.70;6.03;;;;;;;22.47;100.00;96882.09;5067007;28;20589;-49
2022/05/17 09:33:06;;;;;;;11.07;5.65;;;;;;;22.17;100.00;96871.81;5070664;28;20509;-49
2022/05/17 09:35:42;;;;;;;10.25;6.45;;;;;;;22.13;100.00;96870.53;5070636;28;20064;-49
2022/05/17 09:38:10;;;;;;;11.60;6.30;;;;;;;22.49;100.00;96875.47;5070437;28;20083;-46
2022/05/17 09:40:41;;;;;;;11.30;6.40;;;;;;;23.21;100.00;96870.09;5070248;28;20067;-51
2022/05/17 09:43:13;;;;;;;10.18;6.63;;;;;;;22.86;100.00;96872.28;5071079;28;20064;-49
2022/05/17 09:45:50;;;;;;;14.20;7.60;;;;;;;23.40;100.00;96873.72;5069429;28;20435;-50
2022/05/17 09:52:31;;;;;;;8.05;5.75;;;;;;;23.61;100.00;96872.59;5065664;28;20344;-53
2022/05/17 09:54:28;;;;;;;8.10;5.78;;;;;;;24.05;100.00;96868.13;5068602;28;21776;-47
2022/05/17 09:57:12;;;;;;;7.80;5.30;;;;;;;23.63;100.00;96857.84;5067022;28;20079;-49
2022/05/17 09:59:40;;;;;;;9.90;5.03;;;;;;;22.97;100.00;96864.41;5069460;28;20071;-49
2022/05/17 10:02:34;;;;;;;11.70;5.65;;;;;;;22.61;100.00;96861.38;5070257;28;20072;-46
2022/05/17 10:05:13;;;;;;;7.93;5.85;;;;;;;22.45;100.00;96858.13;5069703;28;20127;-47
2022/05/17 10:07:43;;;;;;;12.88;6.65;;;;;;;22.95;100.00;96866.50;5069666;28;20064;-51
2022/05/17 10:10:22;;;;;;;7.70;6.18;;;;;;;23.33;100.00;96862.16;5069389;28;20071;-47
2022/05/17 10:12:52;;;;;;;7.63;5.22;;;;;;;23.30;100.00;96860.75;5069751;28;20052;-52
2022/05/17 10:15:39;;;;;;;6.55;5.30;;;;;;;23.27;100.00;96863.88;5066794;28;20475;-52
2022/05/17 10:18:11;;;;;;;;;;;;;;;23.52;100.00;96863.09;5070642;28;20404;-47
2022/05/17 10:20:43;;;;;;;8.95;6.03;;;;;;;23.84;100.00;96853.16;5069272;28;19947;-51
2022/05/17 10:23:23;;;;;;;8.70;5.78;;;;;;;23.53;100.00;96859.38;5069732;28;20443;-49
2022/05/17 10:25:54;;;;;;;10.48;5.85;;;;;;;23.72;100.00;96854.94;5069458;28;20071;-54
2022/05/17 10:28:36;;;;;;;8.95;5.18;;;;;;;23.79;100.00;96858.41;5070634;28;20071;-46
2022/05/17 10:31:11;;;;;;;8.00;5.22;;;;;;;23.43;100.00;96858.00;5064030;28;20384;-44
2022/05/17 10:34:10;;;;;;;7.43;4.60;;;;;;;23.31;100.00;96846.25;5069892;28;20458;-55
2022/05/17 10:36:42;;;;;;;8.23;5.65;;;;;;;23.63;100.00;96844.38;5068834;28;20072;-45
2022/05/17 10:39:20;;;;;;;7.57;5.03;;;;;;;23.80;100.00;96841.19;5064000;28;20533;-52
2022/05/17 10:41:49;;;;;;;6.30;5.38;;;;;;;24.06;100.00;96840.16;5069114;28;20076;-51
2022/05/17 10:44:20;;;;;;;9.27;5.88;;;;;;;24.47;100.00;96834.22;5070146;28;20068;-50
2022/05/17 10:46:55;;;;;;;8.65;5.20;;;;;;;24.03;100.00;96840.59;5068910;28;20472;-46
2022/05/17 10:49:32;;;;;;;9.57;6.00;;;;;;;23.19;100.00;96847.97;5069494;28;20087;-47
2022/05/17 10:52:07;;;;;;;7.20;5.95;;;;;;;23.12;100.00;96844.47;5069090;28;20080;-50
2022/05/17 10:54:45;;;;;;;10.60;7.22;;;;;;;23.25;100.00;96839.03;5069812;28;20091;-51
2022/05/17 10:57:22;;;;;;;11.38;6.95;;;;;;;23.43;100.00;96836.47;5068241;28;20079;-52
2022/05/17 10:59:59;;;;;;;6.13;4.70;;;;;;;24.19;100.00;96826.56;5070661;28;20440;-48
2022/05/17 11:02:39;;;;;;;8.07;6.40;;;;;;;24.21;100.00;96829.03;5065448;28;20068;-50
2022/05/17 11:05:16;;;;;;;8.25;6.07;;;;;;;24.88;100.00;96832.72;5068956;28;20532;-52
2022/05/17 11:07:56;;;;;;;7.53;6.18;;;;;;;25.02;100.00;96830.66;5067745;28;20072;-47
2022/05/17 11:10:41;;;;;;;6.80;6.00;;;;;;;24.79;100.00;96826.78;5064998;28;20060;-52
2022/05/17 11:13:15;;;;;;;9.38;6.45;;;;;;;24.77;100.00;96834.25;5067588;28;20078;-52
2022/05/17 11:15:46;;;;;;;9.25;6.53;;;;;;;24.60;100.00;96831.38;5068452;28;20084;-51
2022/05/17 11:18:20;;;;;;;8.57;6.50;;;;;;;24.77;100.00;96836.16;5067755;28;20392;-47
2022/05/17 11:20:53;;;;;;;10.45;6.82;;;;;;;24.41;100.00;96835.09;5064135;28;20084;-48
2022/05/17 11:23:45;;;;;;;10.18;6.90;;;;;;;24.06;100.00;96829.38;5068420;28;20060;-47
2022/05/17 11:26:59;;;;;;;9.38;6.55;;;;;;;24.84;100.00;96831.50;5066978;28;20537;-52
2022/05/17 11:29:47;;;;;;;7.82;6.07;;;;;;;25.02;100.00;96823.41;5068069;28;20087;-49
2022/05/17 11:32:27;;;;;;;12.30;6.90;;;;;;;24.59;100.00;96827.00;5068557;28;20060;-49
2022/05/17 11:34:57;;;;;;;6.93;6.20;;;;;;;24.42;100.00;96820.56;5067806;28;20073;-50
2022/05/17 11:37:50;;;;;;;9.40;5.53;;;;;;;24.31;100.00;96818.56;5068495;28;20068;-46
2022/05/17 11:40:56;;;;;;;7.47;5.28;;;;;;;24.15;100.00;96822.66;5065007;28;20569;-47
2022/05/17 11:43:45;;;;;;;10.10;6.53;;;;;;;24.27;100.00;96820.88;5068734;28;20056;-45
2022/05/17 11:46:43;;;;;;;9.10;6.83;;;;;;;24.49;100.00;96807.00;5067327;28;20082;-47
2022/05/17 11:49:41;;;;;;;10.57;6.97;;;;;;;24.30;100.00;96811.53;5067896;28;20478;-49